Time;durP1;ratioP1;P1;durP2;ratioP2;P2;SDS_P1;SDS_P2;PMS_P1;PMS_P2;Temp;Humidity;BMP_temperature;BMP_pressure;BME280_temperature;BME280_humidity;BME280_pressure;Samples;Min_cycle;Max_cycle;Signal;HPM_P1;HPM_P2
2023/11/14 00:00:37;;;;;;;33.80;5.22;;;26.20;33.90;;;;;;5001004;28;20059;-58
2023/11/14 00:03:05;;;;;;;26.13;5.38;;;26.10;33.20;;;;;;4998658;28;20144;-57
2023/11/14 00:05:36;;;;;;;29.88;5.43;;;26.10;34.00;;;;;;5002116;28;20074;-55
2023/11/14 00:08:03;;;;;;;31.55;5.38;;;26.00;34.40;;;;;;4998969;28;20066;-57
2023/11/14 00:10:30;;;;;;;28.55;5.90;;;25.90;35.00;;;;;;5001309;28;20054;-56
2023/11/14 00:12:57;;;;;;;27.85;5.65;;;25.80;35.40;;;;;;5003147;28;20128;-60
2023/11/14 00:15:26;;;;;;;37.25;8.95;;;25.80;35.60;;;;;;5000132;28;20061;-56
2023/11/14 00:17:52;;;;;;;29.63;6.00;;;25.70;35.80;;;;;;4998580;28;20652;-58
2023/11/14 00:20:19;;;;;;;32.38;5.65;;;25.60;36.30;;;;;;5002312;28;20072;-56
2023/11/14 00:22:45;;;;;;;31.10;5.97;;;25.50;36.30;;;;;;5004234;28;20060;-58
2023/11/14 00:25:12;;;;;;;43.40;6.45;;;25.50;36.60;;;;;;5004725;28;20056;-58
2023/11/14 00:27:38;;;;;;;26.80;6.13;;;25.40;37.10;;;;;;5001693;28;20078;-56
2023/11/14 00:30:06;;;;;;;51.88;8.52;;;25.30;37.70;;;;;;5003317;28;20059;-58
2023/11/14 00:32:32;;;;;;;39.40;8.13;;;25.20;37.90;;;;;;5004552;28;20064;-58
2023/11/14 00:34:59;;;;;;;46.53;8.93;;;25.10;38.30;;;;;;5001000;28;20064;-58
2023/11/14 00:37:25;;;;;;;37.22;7.20;;;25.00;38.60;;;;;;4995013;28;20157;-57
2023/11/14 00:39:52;;;;;;;40.85;6.75;;;24.90;38.80;;;;;;4995854;28;21690;-57
2023/11/14 00:42:18;;;;;;;44.65;6.78;;;24.80;39.00;;;;;;4999148;28;20441;-58
2023/11/14 00:44:45;;;;;;;43.90;7.20;;;24.80;39.40;;;;;;4998902;28;20556;-60
2023/11/14 00:47:12;;;;;;;39.17;7.25;;;24.70;39.70;;;;;;4993723;28;20429;-58
2023/11/14 00:49:38;;;;;;;39.08;6.43;;;24.60;40.50;;;;;;4996547;28;20081;-56
2023/11/14 00:52:05;;;;;;;31.67;6.05;;;24.50;41.00;;;;;;4997317;28;20112;-57
2023/11/14 00:54:31;;;;;;;38.35;5.47;;;24.40;41.10;;;;;;5001784;28;20059;-60
2023/11/14 00:56:58;;;;;;;36.38;6.32;;;24.30;41.20;;;;;;5000748;28;20070;-58
2023/11/14 00:59:25;;;;;;;46.25;5.80;;;24.30;41.40;;;;;;5003298;28;20066;-58
2023/11/14 01:01:51;;;;;;;51.75;6.22;;;24.20;41.90;;;;;;5002262;28;20418;-58
2023/11/14 01:04:18;;;;;;;33.80;5.25;;;24.10;42.80;;;;;;5000934;28;20528;-64
2023/11/14 01:06:45;;;;;;;56.78;6.47;;;24.10;43.00;;;;;;5002223;28;20116;-56
2023/11/14 01:09:11;;;;;;;38.97;6.30;;;24.00;43.10;;;;;;5002707;28;20094;-59
2023/11/14 01:11:38;;;;;;;42.80;5.75;;;23.90;42.90;;;;;;5001999;28;20179;-58
2023/11/14 01:14:04;;;;;;;48.13;6.20;;;23.90;43.00;;;;;;5002522;28;20055;-60
2023/11/14 01:16:31;;;;;;;42.10;6.00;;;23.80;43.30;;;;;;5002964;28;20436;-59
2023/11/14 01:18:57;;;;;;;34.10;6.07;;;23.80;43.70;;;;;;4997635;28;20185;-59
2023/11/14 01:21:24;;;;;;;38.88;6.60;;;23.70;43.80;;;;;;5000055;28;20072;-58
2023/11/14 01:23:50;;;;;;;62.60;7.88;;;23.60;44.10;;;;;;4992867;28;20078;-58
2023/11/14 01:26:17;;;;;;;54.72;7.20;;;23.50;44.10;;;;;;4995132;28;20074;-57
2023/11/14 01:28:43;;;;;;;53.75;8.13;;;23.40;44.60;;;;;;4996691;28;20483;-58
2023/11/14 01:31:30;;;;;;;57.45;7.70;;;23.30;44.90;;;;;;4993925;28;20123;-57
2023/11/14 01:33:56;;;;;;;43.35;6.70;;;23.20;45.00;;;;;;5001492;28;20543;-58
2023/11/14 01:36:26;;;;;;;43.65;7.72;;;23.20;45.10;;;;;;5001115;28;20071;-56
2023/11/14 01:38:52;;;;;;;45.78;6.32;;;23.00;45.30;;;;;;4997744;28;20065;-59
2023/11/14 01:41:19;;;;;;;54.47;7.47;;;23.00;45.30;;;;;;4998824;28;20564;-57
2023/11/14 01:43:47;;;;;;;55.05;7.47;;;22.90;45.40;;;;;;5003294;28;20129;-58
2023/11/14 01:46:15;;;;;;;45.95;6.68;;;22.80;45.50;;;;;;4995408;28;20122;-57
2023/11/14 01:48:48;;;;;;;49.40;7.25;;;22.70;45.40;;;;;;5000326;28;20086;-56
2023/11/14 01:51:16;;;;;;;63.30;7.38;;;22.70;45.40;;;;;;5000687;28;20076;-57
2023/11/14 01:53:43;;;;;;;64.53;15.25;;;22.60;45.70;;;;;;4996172;28;20078;-57
2023/11/14 01:56:11;;;;;;;64.30;11.55;;;22.50;46.10;;;;;;4991515;28;20085;-59
2023/11/14 01:58:37;;;;;;;75.40;15.02;;;22.50;46.30;;;;;;4995419;28;20095;-60
2023/11/14 02:01:04;;;;;;;41.95;10.82;;;22.40;46.40;;;;;;4997042;28;20128;-56
2023/11/14 02:03:33;;;;;;;67.85;10.75;;;22.40;46.50;;;;;;4994003;28;20156;-56
2023/11/14 02:06:00;;;;;;;61.15;9.55;;;22.30;46.70;;;;;;5000077;28;20104;-58
2023/11/14 02:08:30;;;;;;;55.42;8.80;;;22.20;46.60;;;;;;4994801;28;20194;-58
2023/11/14 02:10:57;;;;;;;50.90;8.23;;;22.10;46.60;;;;;;5001444;28;20082;-57
2023/11/14 02:13:23;;;;;;;56.35;7.40;;;22.00;46.70;;;;;;4997901;28;20079;-58
2023/11/14 02:15:50;;;;;;;45.92;7.43;;;22.00;46.80;;;;;;4998336;28;20136;-56
2023/11/14 02:18:20;;;;;;;56.20;9.15;;;21.90;46.90;;;;;;4996489;28;20086;-57
2023/11/14 02:20:46;;;;;;;64.68;8.13;;;21.80;47.10;;;;;;4995481;28;20105;-58
2023/11/14 02:23:16;;;;;;;71.50;9.02;;;21.80;48.00;;;;;;4997916;28;20422;-61
2023/11/14 02:25:44;;;;;;;69.47;11.00;;;21.70;47.70;;;;;;4996909;28;20088;-56
2023/11/14 02:28:15;;;;;;;102.30;13.43;;;21.70;48.10;;;;;;5000869;28;20105;-59
2023/11/14 02:30:42;;;;;;;78.97;11.82;;;21.60;48.20;;;;;;5001680;28;20139;-56
2023/11/14 02:33:09;;;;;;;70.35;10.40;;;21.50;48.40;;;;;;4994161;28;20077;-59
2023/11/14 02:35:35;;;;;;;79.00;11.20;;;21.50;48.50;;;;;;4996745;28;20096;-65
2023/11/14 02:38:03;;;;;;;77.72;10.55;;;21.40;48.60;;;;;;4997435;28;20084;-56
2023/11/14 02:40:29;;;;;;;67.18;11.02;;;21.30;48.70;;;;;;4995615;28;20085;-57
2023/11/14 02:42:56;;;;;;;78.20;10.82;;;21.30;48.90;;;;;;4999158;28;20069;-57
2023/11/14 02:45:22;;;;;;;110.28;13.75;;;21.20;49.00;;;;;;4998741;28;20107;-57
2023/11/14 02:47:49;;;;;;;87.88;11.65;;;21.10;49.80;;;;;;4994205;28;20101;-56
2023/11/14 02:50:36;;;;;;;87.15;10.77;;;21.10;49.60;;;;;;4994050;28;20087;-57
2023/11/14 02:53:03;;;;;;;82.57;11.57;;;21.00;49.80;;;;;;5000550;28;20096;-56
2023/11/14 02:55:30;;;;;;;83.10;12.18;;;20.90;49.70;;;;;;4999899;28;20075;-57
2023/11/14 02:57:56;;;;;;;91.00;12.32;;;20.90;50.30;;;;;;4996213;28;20093;-59
2023/11/14 03:00:23;;;;;;;70.40;11.30;;;20.90;50.00;;;;;;4998420;28;20489;-58
2023/11/14 03:02:50;;;;;;;88.75;11.90;;;20.80;50.00;;;;;;4992313;28;20081;-56
2023/11/14 03:05:17;;;;;;;65.25;11.25;;;20.80;50.30;;;;;;4996284;28;20081;-56
2023/11/14 03:07:43;;;;;;;75.63;10.75;;;20.70;50.20;;;;;;4999601;28;20097;-54
2023/11/14 03:10:10;;;;;;;74.65;11.65;;;20.70;50.20;;;;;;4999205;28;20097;-59
2023/11/14 03:12:37;;;;;;;73.55;12.23;;;20.70;50.30;;;;;;4995794;28;20114;-56
2023/11/14 03:15:03;;;;;;;65.07;11.43;;;20.60;50.60;;;;;;4994829;28;20094;-57
2023/11/14 03:17:31;;;;;;;69.88;11.80;;;20.60;50.60;;;;;;4996102;28;20153;-58
2023/11/14 03:19:57;;;;;;;61.40;11.45;;;20.50;50.60;;;;;;4997728;28;20129;-56
2023/11/14 03:22:23;;;;;;;68.03;10.98;;;20.40;50.50;;;;;;4997878;28;20082;-56
2023/11/14 03:24:50;;;;;;;64.07;12.07;;;20.30;50.40;;;;;;5000887;28;20459;-57
2023/11/14 03:27:16;;;;;;;82.88;11.88;;;20.30;50.70;;;;;;4995339;28;20721;-59
2023/11/14 03:29:44;;;;;;;52.20;9.98;;;20.30;50.80;;;;;;5002249;28;20077;-56
2023/11/14 03:32:10;;;;;;;61.47;10.55;;;20.20;51.10;;;;;;4994923;28;20121;-59
2023/11/14 03:34:37;;;;;;;57.47;10.07;;;20.20;51.30;;;;;;5001586;28;20094;-57
2023/11/14 03:37:03;;;;;;;46.05;9.20;;;20.20;51.30;;;;;;4999705;28;20126;-58
2023/11/14 03:39:30;;;;;;;54.53;8.95;;;20.10;51.60;;;;;;4999456;28;20069;-58
2023/11/14 03:41:56;;;;;;;55.55;9.70;;;20.10;52.00;;;;;;4995262;28;20127;-55
2023/11/14 03:44:23;;;;;;;58.35;9.55;;;20.10;52.40;;;;;;5003645;28;20092;-56
2023/11/14 03:46:49;;;;;;;66.00;9.88;;;20.00;52.10;;;;;;4997418;28;20126;-56
2023/11/14 03:49:17;;;;;;;62.20;12.32;;;20.00;52.20;;;;;;4996315;28;20102;-56
2023/11/14 03:51:44;;;;;;;69.10;10.88;;;20.00;52.70;;;;;;5000811;28;20078;-56
2023/11/14 03:54:10;;;;;;;59.03;10.73;;;19.90;52.90;;;;;;4995683;28;20442;-60
2023/11/14 03:56:37;;;;;;;53.95;11.63;;;19.90;52.70;;;;;;5000109;28;20492;-56
2023/11/14 03:59:03;;;;;;;73.47;12.88;;;19.80;52.80;;;;;;4999236;28;20173;-55
2023/11/14 04:01:30;;;;;;;56.35;12.30;;;19.80;52.90;;;;;;4998480;28;20074;-59
2023/11/14 04:03:56;;;;;;;66.80;13.57;;;19.80;53.20;;;;;;4995630;28;20085;-57
2023/11/14 04:06:23;;;;;;;78.60;14.73;;;19.70;53.40;;;;;;4997532;28;20082;-58
2023/11/14 04:08:49;;;;;;;64.50;13.75;;;19.70;53.60;;;;;;4995132;28;20089;-56
2023/11/14 04:11:16;;;;;;;86.22;13.38;;;19.70;53.70;;;;;;4999032;28;20160;-57
2023/11/14 04:13:42;;;;;;;72.88;12.00;;;19.70;53.70;;;;;;4995149;28;20125;-59
2023/11/14 04:16:09;;;;;;;86.05;12.50;;;19.60;53.60;;;;;;4994210;28;20069;-54
2023/11/14 04:18:35;;;;;;;73.78;11.38;;;19.60;53.70;;;;;;5000703;28;20539;-57
2023/11/14 04:21:02;;;;;;;78.43;11.10;;;19.60;54.70;;;;;;4993568;28;20539;-56
2023/11/14 04:23:29;;;;;;;78.30;12.10;;;19.60;54.70;;;;;;4996693;28;20124;-58
2023/11/14 04:25:55;;;;;;;85.10;13.05;;;19.50;54.60;;;;;;5000639;28;20082;-58
2023/11/14 04:28:22;;;;;;;66.93;12.00;;;19.40;54.80;;;;;;4996818;28;20094;-57
2023/11/14 04:30:48;;;;;;;86.20;13.57;;;19.40;54.90;;;;;;4994394;28;20132;-58
2023/11/14 04:33:15;;;;;;;88.88;13.77;;;19.30;55.30;;;;;;4993332;28;20118;-59
2023/11/14 04:35:41;;;;;;;81.25;14.95;;;19.30;55.20;;;;;;4999572;28;20077;-56
2023/11/14 04:38:08;;;;;;;78.47;13.38;;;19.30;55.90;;;;;;4998270;28;20101;-59
2023/11/14 04:40:34;;;;;;;85.95;14.32;;;19.20;55.80;;;;;;4993289;28;20095;-55
2023/11/14 04:43:01;;;;;;;84.88;14.30;;;19.20;56.00;;;;;;4996912;28;20074;-58
2023/11/14 04:45:27;;;;;;;73.45;13.15;;;19.20;56.20;;;;;;5002372;28;20588;-58
2023/11/14 04:47:54;;;;;;;71.20;13.75;;;19.10;56.20;;;;;;4994439;28;20470;-55
2023/11/14 04:50:21;;;;;;;67.65;12.73;;;19.10;56.40;;;;;;4993728;28;20085;-57
2023/11/14 04:52:47;;;;;;;81.95;14.38;;;19.00;56.00;;;;;;4999555;28;20085;-56
2023/11/14 04:55:14;;;;;;;83.10;16.67;;;19.10;56.60;;;;;;4991021;28;20078;-55
2023/11/14 04:57:40;;;;;;;92.43;17.58;;;19.00;56.80;;;;;;4995744;28;20084;-57
2023/11/14 05:00:08;;;;;;;113.00;19.98;;;19.00;56.60;;;;;;4996677;28;20078;-57
2023/11/14 05:02:36;;;;;;;95.18;17.75;;;19.00;56.80;;;;;;4996643;28;20090;-57
2023/11/14 05:05:02;;;;;;;113.97;19.77;;;19.00;56.80;;;;;;4993508;28;20451;-55
2023/11/14 05:07:29;;;;;;;88.45;18.02;;;18.90;57.20;;;;;;4992384;28;20090;-60
2023/11/14 05:09:55;;;;;;;80.75;17.75;;;18.90;57.40;;;;;;4997422;28;20070;-57
2023/11/14 05:12:22;;;;;;;88.80;18.13;;;18.80;57.40;;;;;;4993385;28;20442;-58
2023/11/14 05:14:48;;;;;;;86.68;18.45;;;18.80;57.20;;;;;;4994993;28;20077;-57
2023/11/14 05:17:14;;;;;;;115.22;22.48;;;18.80;57.40;;;;;;4998384;28;20168;-56
2023/11/14 05:19:42;;;;;;;110.22;19.85;;;18.80;57.10;;;;;;4990086;28;20589;-56
2023/11/14 05:22:08;;;;;;;109.63;21.65;;;18.80;56.80;;;;;;4997566;28;20086;-57
2023/11/14 05:24:35;;;;;;;90.07;20.88;;;18.70;57.20;;;;;;4995822;28;20148;-59
2023/11/14 05:27:03;;;;;;;110.68;22.10;;;18.70;57.60;;;;;;4995553;28;20074;-54
2023/11/14 05:29:29;;;;;;;98.25;22.13;;;18.70;57.00;;;;;;5001095;28;20549;-56
2023/11/14 05:31:55;;;;;;;96.80;21.73;;;18.70;57.50;;;;;;4993093;28;20078;-60
2023/11/14 05:34:22;;;;;;;108.38;23.88;;;18.60;57.10;;;;;;4993346;28;20478;-59
2023/11/14 05:36:48;;;;;;;98.80;21.73;;;18.60;57.50;;;;;;5001277;28;20077;-57
2023/11/14 05:39:15;;;;;;;116.07;23.35;;;18.60;57.40;;;;;;4994191;28;20086;-59
2023/11/14 05:41:42;;;;;;;114.60;25.83;;;18.60;57.30;;;;;;4994731;28;20106;-56
2023/11/14 05:44:08;;;;;;;109.85;21.98;;;18.60;57.80;;;;;;4993337;28;20071;-58
2023/11/14 05:46:35;;;;;;;111.68;24.70;;;18.50;57.60;;;;;;4992010;28;20121;-57
2023/11/14 05:49:01;;;;;;;106.05;26.65;;;18.50;57.70;;;;;;4991434;28;20103;-56
2023/11/14 05:51:28;;;;;;;102.82;27.00;;;18.50;57.60;;;;;;4992885;28;20108;-54
2023/11/14 05:53:55;;;;;;;85.75;26.25;;;18.50;57.80;;;;;;5002489;28;20074;-58
2023/11/14 05:56:21;;;;;;;115.20;28.05;;;18.50;57.90;;;;;;4993547;28;20093;-57
2023/11/14 05:58:48;;;;;;;117.70;29.80;;;18.40;57.90;;;;;;4998953;28;20569;-59
2023/11/14 06:01:14;;;;;;;144.77;30.20;;;18.40;58.40;;;;;;4999671;28;20143;-57
2023/11/14 06:03:40;;;;;;;127.38;32.72;;;18.40;58.00;;;;;;4995933;28;20075;-55
2023/11/14 06:06:07;;;;;;;109.68;31.42;;;18.40;58.20;;;;;;4995071;28;20076;-58
2023/11/14 06:08:34;;;;;;;125.15;30.95;;;18.30;58.70;;;;;;4989330;28;20087;-57
2023/11/14 06:11:01;;;;;;;119.75;29.10;;;18.30;58.90;;;;;;4991229;28;20150;-56
2023/11/14 06:13:27;;;;;;;96.60;25.35;;;18.30;58.50;;;;;;4994180;28;20069;-57
2023/11/14 06:15:54;;;;;;;99.60;26.85;;;18.30;58.30;;;;;;4994888;28;20087;-56
2023/11/14 06:18:20;;;;;;;102.70;25.35;;;18.20;57.90;;;;;;4991533;28;20079;-58
2023/11/14 06:20:47;;;;;;;102.38;26.33;;;18.30;58.60;;;;;;4999479;28;20088;-55
2023/11/14 06:23:13;;;;;;;101.78;27.63;;;18.30;58.60;;;;;;4994978;28;20082;-58
2023/11/14 06:25:39;;;;;;;124.07;26.73;;;18.20;58.10;;;;;;5003027;28;20134;-60
2023/11/14 06:28:06;;;;;;;106.32;25.52;;;18.30;57.00;;;;;;4993374;28;20181;-61
2023/11/14 06:30:35;;;;;;;116.88;23.55;;;18.30;56.20;;;;;;4995478;28;20074;-61
2023/11/14 06:33:03;;;;;;;106.30;21.17;;;18.50;55.40;;;;;;4994903;28;20085;-60
2023/11/14 06:35:29;;;;;;;86.88;21.08;;;18.60;54.50;;;;;;4993166;28;20703;-58
2023/11/14 06:37:56;;;;;;;76.70;18.75;;;18.70;54.10;;;;;;5000970;28;20131;-59
2023/11/14 06:40:22;;;;;;;64.72;15.77;;;18.80;54.00;;;;;;4992869;28;20544;-59
2023/11/14 06:42:49;;;;;;;68.88;15.20;;;18.90;53.60;;;;;;4998260;28;20090;-59
2023/11/14 06:45:15;;;;;;;78.18;14.85;;;18.90;53.40;;;;;;4999768;28;20537;-61
2023/11/14 06:47:41;;;;;;;68.38;13.55;;;18.90;53.30;;;;;;4999784;28;20105;-60
2023/11/14 06:50:10;;;;;;;60.13;11.75;;;19.00;53.50;;;;;;4995613;28;20092;-60
2023/11/14 06:52:37;;;;;;;72.45;13.10;;;19.00;52.80;;;;;;4998136;28;20445;-59
2023/11/14 06:55:04;;;;;;;70.45;13.68;;;19.00;53.30;;;;;;5001654;28;20078;-60
2023/11/14 06:57:31;;;;;;;56.85;12.32;;;19.00;53.50;;;;;;5000797;28;20078;-61
2023/11/14 07:00:00;;;;;;;64.68;12.15;;;18.90;53.50;;;;;;4998610;28;20086;-60
2023/11/14 07:02:27;;;;;;;55.70;11.90;;;18.90;53.80;;;;;;4999741;28;20160;-62
2023/11/14 07:04:54;;;;;;;65.97;12.65;;;18.80;53.90;;;;;;5002317;28;20535;-60
2023/11/14 07:07:21;;;;;;;66.32;12.68;;;18.80;54.10;;;;;;5005110;28;20078;-59
2023/11/14 07:09:49;;;;;;;55.22;11.38;;;18.70;54.30;;;;;;4995769;28;20075;-59
2023/11/14 07:12:16;;;;;;;45.88;10.50;;;18.70;54.20;;;;;;4998732;28;20074;-61
2023/11/14 07:14:42;;;;;;;54.40;11.35;;;18.60;54.20;;;;;;5005132;28;20077;-59
2023/11/14 07:17:10;;;;;;;47.45;10.73;;;18.60;54.70;;;;;;4994377;28;20089;-59
2023/11/14 07:19:36;;;;;;;49.20;11.13;;;18.50;54.50;;;;;;5005577;28;20078;-59
2023/11/14 07:22:03;;;;;;;53.88;12.82;;;18.50;54.70;;;;;;5004451;28;20072;-61
2023/11/14 07:24:29;;;;;;;48.83;11.73;;;18.40;54.70;;;;;;5001936;28;20121;-59
2023/11/14 07:26:56;;;;;;;52.08;12.68;;;18.40;55.10;;;;;;5001920;28;20078;-59
2023/11/14 07:29:22;;;;;;;60.00;13.55;;;18.30;55.80;;;;;;5002129;28;20103;-59
2023/11/14 07:31:48;;;;;;;58.50;13.15;;;18.30;55.80;;;;;;4999248;28;20091;-59
2023/11/14 07:34:15;;;;;;;49.97;12.63;;;18.20;55.60;;;;;;5001033;28;20185;-58
2023/11/14 07:36:42;;;;;;;55.90;11.63;;;18.20;55.80;;;;;;5000257;28;20170;-59
2023/11/14 07:39:10;;;;;;;53.50;11.95;;;18.10;55.80;;;;;;4999568;28;20090;-60
2023/11/14 07:41:36;;;;;;;47.50;10.57;;;18.10;56.20;;;;;;4997830;28;20087;-61
2023/11/14 07:44:03;;;;;;;57.88;10.55;;;18.10;56.10;;;;;;5003721;28;20094;-60
2023/11/14 07:46:29;;;;;;;60.00;11.15;;;18.10;55.60;;;;;;5003780;28;20107;-61
2023/11/14 07:48:56;;;;;;;38.80;9.52;;;18.00;55.60;;;;;;4997097;28;20096;-60
2023/11/14 07:51:23;;;;;;;40.80;10.55;;;18.00;55.70;;;;;;4997898;28;20206;-61
2023/11/14 07:53:52;;;;;;;65.63;10.75;;;18.00;56.20;;;;;;4999254;28;20110;-60
2023/11/14 07:56:19;;;;;;;54.17;9.93;;;18.00;56.50;;;;;;5003265;28;20089;-59
2023/11/14 07:58:45;;;;;;;47.33;10.00;;;18.00;56.20;;;;;;4995974;28;20201;-60
2023/11/14 08:01:12;;;;;;;47.30;9.80;;;17.90;56.40;;;;;;5000190;28;20076;-60
2023/11/14 08:03:38;;;;;;;40.47;9.38;;;17.90;56.50;;;;;;5002776;28;20087;-62
2023/11/14 08:06:05;;;;;;;41.75;9.88;;;17.80;56.70;;;;;;4999551;28;20079;-61
2023/11/14 08:08:32;;;;;;;38.60;8.98;;;17.80;56.70;;;;;;4997982;28;20099;-59
2023/11/14 08:11:00;;;;;;;36.63;8.35;;;17.80;56.90;;;;;;4995731;28;20090;-60
2023/11/14 08:13:27;;;;;;;39.67;8.57;;;17.70;57.00;;;;;;4999609;28;20113;-60
2023/11/14 08:15:53;;;;;;;42.00;9.30;;;17.70;56.80;;;;;;4999155;28;20082;-59
2023/11/14 08:18:20;;;;;;;62.97;25.30;;;17.60;57.10;;;;;;4994982;28;20166;-60
2023/11/14 08:20:46;;;;;;;60.97;25.88;;;17.60;57.00;;;;;;4997053;28;20071;-60
2023/11/14 08:23:13;;;;;;;37.67;9.18;;;17.60;57.20;;;;;;4997818;28;20072;-59
2023/11/14 08:25:39;;;;;;;33.30;9.07;;;17.60;57.20;;;;;;4995040;28;20079;-59
2023/11/14 08:28:07;;;;;;;41.03;8.55;;;17.50;57.40;;;;;;4997963;28;20098;-59
2023/11/14 08:30:33;;;;;;;39.15;8.32;;;17.50;57.70;;;;;;5001067;28;20082;-56
2023/11/14 08:32:59;;;;;;;51.03;9.65;;;17.40;57.90;;;;;;4995326;28;20103;-57
2023/11/14 08:35:26;;;;;;;48.33;9.57;;;17.40;58.10;;;;;;4992322;28;20121;-59
2023/11/14 08:37:53;;;;;;;45.83;9.40;;;17.30;58.10;;;;;;4995635;28;20547;-60
2023/11/14 08:40:21;;;;;;;45.20;9.07;;;17.30;58.40;;;;;;4994535;28;20081;-60
2023/11/14 08:42:49;;;;;;;46.83;8.20;;;17.20;58.30;;;;;;4992282;28;20159;-61
2023/11/14 08:45:15;;;;;;;30.98;8.43;;;17.20;57.80;;;;;;4992729;28;20095;-60
2023/11/14 08:47:42;;;;;;;45.30;7.68;;;17.10;57.90;;;;;;4999931;28;20104;-62
2023/11/14 08:50:09;;;;;;;42.40;7.97;;;17.10;58.20;;;;;;4999309;28;20076;-60
2023/11/14 08:52:36;;;;;;;32.92;8.32;;;17.00;58.40;;;;;;4995267;28;20080;-61
2023/11/14 08:55:03;;;;;;;45.42;8.43;;;17.00;58.80;;;;;;4993204;28;20091;-59
2023/11/14 08:57:30;;;;;;;43.75;7.80;;;16.90;58.90;;;;;;4997954;28;20083;-60
2023/11/14 08:59:57;;;;;;;29.17;7.70;;;16.90;59.10;;;;;;4994598;28;20565;-60
2023/11/14 09:02:24;;;;;;;40.50;7.45;;;16.90;59.80;;;;;;5004245;28;20090;-59
2023/11/14 09:04:50;;;;;;;46.90;7.93;;;16.80;59.50;;;;;;4994670;28;20084;-60
2023/11/14 09:07:17;;;;;;;35.63;7.43;;;16.80;59.80;;;;;;4991423;28;20540;-60
2023/11/14 09:09:47;;;;;;;28.67;7.35;;;16.70;59.60;;;;;;4996602;28;20146;-61
2023/11/14 09:12:14;;;;;;;31.33;7.68;;;16.70;59.80;;;;;;4993531;28;20091;-58
2023/11/14 09:14:40;;;;;;;42.97;8.32;;;16.60;59.50;;;;;;4993490;28;20131;-61
2023/11/14 09:17:08;;;;;;;29.52;7.82;;;16.60;59.40;;;;;;4998897;28;20104;-57
2023/11/14 09:19:35;;;;;;;35.35;8.02;;;16.60;59.10;;;;;;4994314;28;20151;-58
2023/11/14 09:22:02;;;;;;;43.92;10.35;;;16.50;59.50;;;;;;5001967;28;20134;-59
2023/11/14 09:24:28;;;;;;;40.97;9.18;;;16.50;58.70;;;;;;4993251;28;20081;-56
2023/11/14 09:26:55;;;;;;;31.77;8.70;;;16.40;58.30;;;;;;4994448;28;20076;-60
2023/11/14 09:29:21;;;;;;;37.13;9.02;;;16.40;59.20;;;;;;4996686;28;20088;-57
2023/11/14 09:31:48;;;;;;;38.83;9.63;;;16.40;58.90;;;;;;4992448;28;20073;-60
2023/11/14 09:34:14;;;;;;;37.40;9.73;;;16.40;58.40;;;;;;4997269;28;20084;-61
2023/11/14 09:36:41;;;;;;;47.92;10.57;;;16.30;58.20;;;;;;4992413;28;20087;-60
2023/11/14 09:39:08;;;;;;;37.10;10.38;;;16.30;58.10;;;;;;5000029;28;20102;-58
2023/11/14 09:41:34;;;;;;;33.05;9.70;;;16.30;57.90;;;;;;4995292;28;20166;-60
2023/11/14 09:44:01;;;;;;;34.47;10.52;;;16.30;58.50;;;;;;4999242;28;20071;-59
2023/11/14 09:46:31;;;;;;;27.25;10.43;;;16.20;58.40;;;;;;4993046;28;20557;-59
2023/11/14 09:48:57;;;;;;;38.28;10.25;;;16.20;58.10;;;;;;4995826;28;20194;-61
2023/11/14 09:51:25;;;;;;;35.85;10.27;;;16.20;58.30;;;;;;4996989;28;20080;-60
2023/11/14 09:53:53;;;;;;;41.45;11.35;;;16.10;58.40;;;;;;4992197;28;20786;-58
2023/11/14 09:56:20;;;;;;;39.08;11.18;;;16.10;58.50;;;;;;5003545;28;20085;-61
2023/11/14 09:58:53;;;;;;;45.20;12.15;;;16.00;57.80;;;;;;4993963;28;20076;-57
2023/11/14 10:01:19;;;;;;;42.03;11.52;;;16.00;57.70;;;;;;4993463;28;20088;-60
2023/11/14 10:03:46;;;;;;;39.53;12.23;;;15.90;58.90;;;;;;4993829;28;20077;-62
2023/11/14 10:06:13;;;;;;;41.08;11.88;;;15.90;58.30;;;;;;4998240;28;20084;-58
2023/11/14 10:08:40;;;;;;;38.03;11.85;;;15.90;57.90;;;;;;4996814;28;20560;-61
2023/11/14 10:11:11;;;;;;;41.63;11.68;;;15.90;58.50;;;;;;4993128;28;20087;-61
2023/11/14 10:13:39;;;;;;;38.00;12.93;;;15.90;58.60;;;;;;4994636;28;20444;-61
2023/11/14 10:16:12;;;;;;;43.70;13.50;;;15.90;58.40;;;;;;4993870;28;20085;-59
2023/11/14 10:18:38;;;;;;;42.03;12.55;;;15.80;58.30;;;;;;4993098;28;20617;-59
2023/11/14 10:21:17;;;;;;;45.65;12.77;;;15.80;58.50;;;;;;4993436;28;20143;-62
2023/11/14 10:23:43;;;;;;;37.97;13.07;;;15.80;58.40;;;;;;4993306;28;20087;-58
2023/11/14 10:26:10;;;;;;;40.35;12.35;;;15.70;58.50;;;;;;4989842;28;20083;-59
2023/11/14 10:28:37;;;;;;;49.75;13.10;;;15.70;58.90;;;;;;4994465;28;20151;-58
2023/11/14 10:31:03;;;;;;;47.30;13.00;;;15.70;60.00;;;;;;4995958;28;20150;-59
2023/11/14 10:33:39;;;;;;;47.13;12.77;;;15.60;59.50;;;;;;4992672;28;20083;-59
2023/11/14 10:36:09;;;;;;;43.50;12.80;;;15.60;59.80;;;;;;4994384;28;20443;-61
2023/11/14 10:38:36;;;;;;;37.58;13.40;;;15.60;60.10;;;;;;4992674;28;20321;-59
2023/11/14 10:41:03;;;;;;;49.00;12.93;;;15.60;60.50;;;;;;4993543;28;20619;-58
2023/11/14 10:43:36;;;;;;;49.65;13.40;;;15.60;60.60;;;;;;4996564;28;20109;-59
2023/11/14 10:46:15;;;;;;;51.58;14.13;;;15.60;59.40;;;;;;4989619;28;20573;-61
2023/11/14 10:48:42;;;;;;;47.90;14.30;;;15.60;59.50;;;;;;4992019;28;20124;-61
2023/11/14 10:51:11;;;;;;;39.53;13.65;;;15.60;59.60;;;;;;4992915;28;20088;-60
2023/11/14 10:53:39;;;;;;;48.00;15.10;;;15.60;59.70;;;;;;4995552;28;20142;-60
2023/11/14 10:56:07;;;;;;;54.22;14.82;;;15.50;59.30;;;;;;4997780;28;20083;-65
2023/11/14 10:58:34;;;;;;;58.60;15.48;;;15.50;59.30;;;;;;4995709;28;20081;-61
2023/11/14 11:01:02;;;;;;;46.35;14.70;;;15.40;59.70;;;;;;5000068;28;20084;-59
2023/11/14 11:03:29;;;;;;;51.05;15.75;;;15.40;60.20;;;;;;4996878;28;20084;-58
2023/11/14 11:05:56;;;;;;;50.30;15.32;;;15.40;59.70;;;;;;4992493;28;20480;-59
2023/11/14 11:08:22;;;;;;;;;;;15.40;59.80;;;;;;4996237;28;20104;-61
2023/11/14 11:10:49;;;;;;;53.53;15.85;;;15.40;60.10;;;;;;4991528;28;20359;-59
2023/11/14 11:13:22;;;;;;;51.33;16.80;;;15.30;59.90;;;;;;4999371;28;20669;-58
2023/11/14 11:15:50;;;;;;;52.65;16.75;;;15.30;59.50;;;;;;4993134;28;20083;-59
2023/11/14 11:18:23;;;;;;;53.83;17.45;;;15.40;59.60;;;;;;4994808;28;20437;-58
2023/11/14 11:20:50;;;;;;;53.03;16.50;;;15.40;59.10;;;;;;4991297;28;20099;-59
2023/11/14 11:23:18;;;;;;;61.33;16.85;;;15.40;59.30;;;;;;4994121;28;20076;-59
2023/11/14 11:26:16;;;;;;;61.45;17.63;;;15.40;59.20;;;;;;4996078;28;20131;-59
2023/11/14 11:28:45;;;;;;;47.53;16.83;;;15.50;59.00;;;;;;4992615;28;20105;-60
2023/11/14 11:31:16;;;;;;;56.63;16.60;;;15.50;59.00;;;;;;4998842;28;20080;-59
2023/11/14 11:33:44;;;;;;;60.72;17.58;;;15.50;59.00;;;;;;4997187;28;20080;-58
2023/11/14 11:36:26;;;;;;;58.70;16.90;;;15.50;59.40;;;;;;4994201;28;20451;-59
2023/11/14 11:38:57;;;;;;;49.92;17.05;;;15.60;59.70;;;;;;4998121;28;20076;-58
2023/11/14 11:41:30;;;;;;;47.47;17.55;;;15.50;58.90;;;;;;4993110;28;20095;-57
2023/11/14 11:44:10;;;;;;;44.85;16.23;;;15.50;59.30;;;;;;4999556;28;20072;-59
2023/11/14 11:46:38;;;;;;;53.72;17.33;;;15.50;59.30;;;;;;4992948;28;20207;-59
2023/11/14 11:49:11;;;;;;;48.13;15.73;;;15.50;59.10;;;;;;4998514;28;20102;-59
2023/11/14 11:51:38;;;;;;;52.25;17.10;;;15.50;59.30;;;;;;4994221;28;20088;-57
2023/11/14 11:54:28;;;;;;;44.47;15.38;;;15.50;59.40;;;;;;5002557;28;20610;-59
2023/11/14 11:57:06;;;;;;;42.38;16.35;;;15.50;59.40;;;;;;4988611;28;20191;-57
2023/11/14 11:59:48;;;;;;;55.00;17.40;;;15.50;59.50;;;;;;4996196;28;20095;-59
2023/11/14 12:02:18;;;;;;;51.83;17.77;;;15.50;59.50;;;;;;4998807;28;20150;-58
2023/11/14 12:04:47;;;;;;;51.50;17.23;;;15.50;59.50;;;;;;4994376;28;20091;-57
2023/11/14 12:07:14;;;;;;;47.97;16.52;;;15.40;59.40;;;;;;5000408;28;20606;-59
2023/11/14 12:09:40;;;;;;;51.92;17.40;;;15.40;59.60;;;;;;4999838;28;20122;-58
2023/11/14 12:12:07;;;;;;;45.90;15.90;;;15.40;59.40;;;;;;4993996;28;20160;-58
2023/11/14 12:14:34;;;;;;;44.72;16.20;;;15.40;59.50;;;;;;4996703;28;20130;-61
2023/11/14 12:17:03;;;;;;;39.00;15.65;;;15.40;59.60;;;;;;4993170;28;20084;-60
2023/11/14 12:19:29;;;;;;;49.45;15.25;;;15.40;60.40;;;;;;4996537;28;20123;-60
2023/11/14 12:21:57;;;;;;;47.25;15.98;;;15.30;60.00;;;;;;5002132;28;20080;-60
2023/11/14 12:24:23;;;;;;;41.10;14.45;;;15.30;60.00;;;;;;4994792;28;20474;-59
2023/11/14 12:26:50;;;;;;;40.92;14.45;;;15.30;59.70;;;;;;4992266;28;20103;-60
2023/11/14 12:29:17;;;;;;;37.45;14.05;;;15.20;59.70;;;;;;5000039;28;20100;-59
2023/11/14 12:31:47;;;;;;;43.15;13.68;;;15.30;60.20;;;;;;5000223;28;20797;-58